Beaufort, North Carolina
Current Conditions -  °F | °C
As of 12:20 PM on Monday 24 Nov 2014 (Local Time) from KMRH Reporting Station
Haze Haze  
Wind Chill: 67°   Ceiling: 500
Heat Index: 67°   Visibility: 3mi
Dew Point: 66°   Wind: 9mph
Humidity: 97%   Direction: 210°SSW
Pressure: 29.89"   Gusts: NA
Location:  34.72°N, 76.66°W
Report Text: KMRH 241720Z AUTO 21008KT 3SM BR OVC005 19/19 A2989 RMK AO2 T01940189 TSNO
Loading
Personal Weather Stations






























Interactive Weather Map New forecast layout! Learn more

10-Day Weather Forecast

Advertisements
Track Severe Weather on mobile